Check out our new BloomSky Weather System.

Active alerts


No alerts


Thunder radar  blitzortung!


Rain radar more information rain snow radar


Visit our other weather sites:

Template documentation
and downloads

And another site



Weather Underground History page Text

Daily Summary for January 1, 2017 Units:  English    Metric   Both
« Previous Day
Next Day »
Daily Weekly Monthly Yearly Custom
  High: Low: Average:
Temperature: 75.0 °F 64.6 °F 67.8 °F
Dew Point: 68.9 °F 64.0 °F 65.6 °F
Humidity: 99 % 76 % 93 %
Wind Speed: 7.0 mph 0.0 mph 0.5 mph
Wind Gust: 8.0 mph - -
Wind:- - SE
Pressure: 29.92 in 29.79 in -
Precipitation: 0.00 in    
Historical Graphs
 
 
Tabular Data for January 1, 2017
Time Temperature Dew Point Pressure Wind Wind Speed Wind Gust Humidity Rainfall Rate (Hourly)
00:01 65.8 °F 64.9 °F 29.83 in Calm   2.0 mph 97 % 0.00 in
00:06 65.8 °F 64.9 °F 29.83 in Calm   2.0 mph 97 % 0.00 in
00:11 65.7 °F 64.8 °F 29.83 in Calm   2.0 mph 97 % 0.00 in
00:16 65.7 °F 64.8 °F 29.83 in Calm   1.0 mph 97 % 0.00 in
00:21 65.7 °F 64.8 °F 29.83 in Calm     97 % 0.00 in
00:26 65.7 °F 64.8 °F 29.83 in Calm     97 % 0.00 in
00:31 65.7 °F 64.8 °F 29.84 in Calm     97 % 0.00 in
00:36 65.5 °F 64.6 °F 29.84 in Calm     97 % 0.00 in
00:41 65.5 °F 64.6 °F 29.83 in Calm     97 % 0.00 in
00:46 65.5 °F 64.9 °F 29.83 in Calm     98 % 0.00 in
00:51 65.5 °F 64.9 °F 29.83 in Calm     98 % 0.00 in
00:56 65.5 °F 64.9 °F 29.83 in Calm     98 % 0.00 in
01:01 65.5 °F 64.9 °F 29.83 in Calm     98 % 0.00 in
01:06 65.5 °F 64.9 °F 29.83 in Calm     98 % 0.00 in
01:11 65.5 °F 64.9 °F 29.83 in Calm     98 % 0.00 in
01:16 65.5 °F 64.9 °F 29.83 in Calm     98 % 0.00 in
01:21 65.5 °F 64.9 °F 29.83 in Calm   1.0 mph 98 % 0.00 in
01:26 65.5 °F 64.9 °F 29.83 in Calm   1.0 mph 98 % 0.00 in
01:31 65.5 °F 64.9 °F 29.83 in Calm   1.0 mph 98 % 0.00 in
01:36 65.5 °F 64.9 °F 29.83 in WSW 1.0 mph 1.0 mph 98 % 0.00 in
01:41 65.5 °F 64.9 °F 29.84 in WSW 1.0 mph 1.0 mph 98 % 0.00 in
01:46 65.5 °F 64.9 °F 29.84 in Calm   1.0 mph 98 % 0.00 in
01:52 65.5 °F 64.9 °F 29.84 in Calm   1.0 mph 98 % 0.00 in
01:57 65.5 °F 64.9 °F 29.84 in Calm   1.0 mph 98 % 0.00 in
02:02 65.5 °F 64.9 °F 29.83 in Calm   1.0 mph 98 % 0.00 in
02:07 65.5 °F 64.9 °F 29.84 in Calm   1.0 mph 98 % 0.00 in
02:12 65.5 °F 64.9 °F 29.83 in Calm   1.0 mph 98 % 0.00 in
02:17 65.3 °F 64.8 °F 29.83 in Calm   1.0 mph 98 % 0.00 in
02:22 65.3 °F 64.8 °F 29.83 in Calm   1.0 mph 98 % 0.00 in
02:27 65.1 °F 64.6 °F 29.83 in Calm   1.0 mph 98 % 0.00 in
02:32 65.1 °F 64.6 °F 29.83 in Calm   1.0 mph 98 % 0.00 in
02:37 64.9 °F 64.4 °F 29.83 in Calm     98 % 0.00 in
02:42 64.9 °F 64.4 °F 29.84 in Calm     98 % 0.00 in
02:47 64.9 °F 64.4 °F 29.84 in Calm     98 % 0.00 in
02:52 64.9 °F 64.4 °F 29.84 in Calm     98 % 0.00 in
02:57 64.9 °F 64.4 °F 29.84 in Calm     98 % 0.00 in
03:02 64.9 °F 64.4 °F 29.83 in Calm     98 % 0.00 in
03:07 64.9 °F 64.4 °F 29.83 in Calm   1.0 mph 98 % 0.00 in
03:12 64.9 °F 64.4 °F 29.83 in Calm   1.0 mph 98 % 0.00 in
03:17 64.9 °F 64.4 °F 29.84 in Calm   1.0 mph 98 % 0.00 in
03:22 65.1 °F 64.6 °F 29.84 in Calm     98 % 0.00 in
03:27 65.1 °F 64.6 °F 29.83 in Calm     98 % 0.00 in
03:32 65.1 °F 64.6 °F 29.83 in Calm     98 % 0.00 in
03:37 65.1 °F 64.6 °F 29.83 in Calm     98 % 0.00 in
03:42 65.1 °F 64.6 °F 29.83 in Calm     98 % 0.00 in
03:47 65.1 °F 64.6 °F 29.83 in Calm     98 % 0.00 in
03:52 65.1 °F 64.6 °F 29.84 in Calm     98 % 0.00 in
03:57 65.1 °F 64.6 °F 29.84 in Calm     98 % 0.00 in
04:02 65.1 °F 64.6 °F 29.83 in Calm     98 % 0.00 in
04:07 65.1 °F 64.6 °F 29.82 in East 1.0 mph 1.0 mph 98 % 0.00 in
04:12 65.1 °F 64.6 °F 29.82 in Calm   1.0 mph 98 % 0.00 in
04:17 65.1 °F 64.6 °F 29.83 in Calm   1.0 mph 98 % 0.00 in
04:22 64.9 °F 64.4 °F 29.85 in SW 2.0 mph 3.0 mph 98 % 0.00 in
04:27 64.9 °F 64.4 °F 29.85 in Calm   3.0 mph 98 % 0.00 in
04:32 64.9 °F 64.4 °F 29.85 in Calm   3.0 mph 98 % 0.00 in
04:37 64.9 °F 64.4 °F 29.85 in SSW 2.0 mph 3.0 mph 98 % 0.00 in
04:42 64.9 °F 64.4 °F 29.85 in Calm   2.0 mph 98 % 0.00 in
04:47 64.9 °F 64.4 °F 29.85 in Calm   2.0 mph 98 % 0.00 in
04:52 64.9 °F 64.4 °F 29.85 in Calm   2.0 mph 98 % 0.00 in
04:57 64.9 °F 64.4 °F 29.85 in Calm   3.0 mph 98 % 0.00 in
05:02 64.9 °F 64.4 °F 29.85 in Calm   3.0 mph 98 % 0.00 in
05:07 64.9 °F 64.4 °F 29.84 in Calm   3.0 mph 98 % 0.00 in
05:12 64.9 °F 64.4 °F 29.84 in Calm     98 % 0.00 in
05:17 64.8 °F 64.2 °F 29.85 in Calm     98 % 0.00 in
05:22 64.8 °F 64.2 °F 29.84 in Calm   1.0 mph 98 % 0.00 in
05:27 64.8 °F 64.2 °F 29.84 in Calm   1.0 mph 98 % 0.00 in
05:32 64.6 °F 64.0 °F 29.85 in Calm   1.0 mph 98 % 0.00 in
05:37 64.6 °F 64.0 °F 29.85 in Calm   1.0 mph 98 % 0.00 in
05:42 64.6 °F 64.0 °F 29.85 in Calm   1.0 mph 98 % 0.00 in
05:47 64.6 °F 64.0 °F 29.84 in Calm     98 % 0.00 in
05:52 64.6 °F 64.0 °F 29.84 in Calm   1.0 mph 98 % 0.00 in
05:57 64.6 °F 64.0 °F 29.84 in Calm   1.0 mph 98 % 0.00 in
06:02 64.6 °F 64.0 °F 29.84 in Calm   1.0 mph 98 % 0.00 in
06:07 64.6 °F 64.0 °F 29.84 in Calm   1.0 mph 98 % 0.00 in
06:12 64.6 °F 64.0 °F 29.84 in Calm   1.0 mph 98 % 0.00 in
06:17 64.6 °F 64.0 °F 29.84 in Calm   1.0 mph 98 % 0.00 in
06:22 64.6 °F 64.0 °F 29.85 in Calm   1.0 mph 98 % 0.00 in
06:27 64.6 °F 64.0 °F 29.86 in Calm   1.0 mph 98 % 0.00 in
06:32 64.6 °F 64.0 °F 29.86 in Calm   1.0 mph 98 % 0.00 in
06:37 64.6 °F 64.0 °F 29.86 in Calm   1.0 mph 98 % 0.00 in
06:38 64.6 °F 64.0 °F 29.86 in Calm   1.0 mph 98 % 0.00 in
06:43 64.6 °F 64.0 °F 29.85 in Calm   1.0 mph 98 % 0.00 in
06:48 64.6 °F 64.0 °F 29.86 in ESE 1.0 mph 1.0 mph 98 % 0.00 in
06:53 64.6 °F 64.0 °F 29.86 in Calm   1.0 mph 98 % 0.00 in
06:58 64.8 °F 64.2 °F 29.86 in Calm   1.0 mph 98 % 0.00 in
07:03 64.6 °F 64.0 °F 29.86 in Calm   1.0 mph 98 % 0.00 in
07:08 64.6 °F 64.0 °F 29.86 in Calm   1.0 mph 98 % 0.00 in
07:13 64.6 °F 64.0 °F 29.86 in Calm   1.0 mph 98 % 0.00 in
07:18 64.6 °F 64.2 °F 29.87 in Calm     99 % 0.00 in
07:23 64.6 °F 64.2 °F 29.87 in Calm     99 % 0.00 in
07:28 64.6 °F 64.2 °F 29.87 in Calm     99 % 0.00 in
07:33 64.6 °F 64.2 °F 29.87 in Calm     99 % 0.00 in
07:38 64.6 °F 64.2 °F 29.88 in Calm     99 % 0.00 in
07:43 64.6 °F 64.2 °F 29.89 in Calm     99 % 0.00 in
07:49 64.8 °F 64.4 °F 29.89 in Calm   1.0 mph 99 % 0.00 in
07:54 64.8 °F 64.4 °F 29.87 in Calm   1.0 mph 99 % 0.00 in
07:59 64.8 °F 64.4 °F 29.87 in Calm   1.0 mph 99 % 0.00 in
08:04 64.8 °F 64.4 °F 29.87 in Calm   1.0 mph 99 % 0.00 in
08:09 64.9 °F 64.6 °F 29.86 in Calm   1.0 mph 99 % 0.00 in
08:14 64.9 °F 64.6 °F 29.87 in Calm   2.0 mph 99 % 0.00 in
08:19 64.9 °F 64.6 °F 29.88 in Calm   2.0 mph 99 % 0.00 in
08:24 64.9 °F 64.6 °F 29.89 in Calm   2.0 mph 99 % 0.00 in
08:29 64.9 °F 64.6 °F 29.89 in Calm   2.0 mph 99 % 0.00 in
08:34 65.1 °F 64.8 °F 29.88 in Calm   2.0 mph 99 % 0.00 in
08:39 65.1 °F 64.8 °F 29.88 in Calm   2.0 mph 99 % 0.00 in
08:44 65.1 °F 64.8 °F 29.89 in Calm   1.0 mph 99 % 0.00 in
08:49 65.1 °F 64.8 °F 29.89 in Calm     99 % 0.00 in
08:54 65.1 °F 64.8 °F 29.90 in Calm     99 % 0.00 in
08:59 65.1 °F 64.8 °F 29.91 in Calm   1.0 mph 99 % 0.00 in
09:04 65.1 °F 64.8 °F 29.90 in Calm   1.0 mph 99 % 0.00 in
09:09 65.1 °F 64.8 °F 29.89 in Calm   1.0 mph 99 % 0.00 in
09:14 65.3 °F 64.9 °F 29.89 in Calm   1.0 mph 99 % 0.00 in
09:19 65.3 °F 64.8 °F 29.89 in NW 1.0 mph 1.0 mph 98 % 0.00 in
09:24 65.3 °F 64.8 °F 29.90 in Calm   2.0 mph 98 % 0.00 in
09:29 65.3 °F 64.8 °F 29.90 in Calm   2.0 mph 98 % 0.00 in
09:34 65.5 °F 64.9 °F 29.90 in Calm   2.0 mph 98 % 0.00 in
09:39 65.5 °F 64.9 °F 29.91 in Calm   2.0 mph 98 % 0.00 in
09:44 65.5 °F 64.9 °F 29.92 in Calm   1.0 mph 98 % 0.00 in
09:49 65.5 °F 64.9 °F 29.91 in Calm   1.0 mph 98 % 0.00 in
09:54 65.7 °F 65.1 °F 29.92 in Calm   1.0 mph 98 % 0.00 in
09:59 65.7 °F 65.1 °F 29.92 in Calm   1.0 mph 98 % 0.00 in
10:04 65.7 °F 65.1 °F 29.91 in Calm   1.0 mph 98 % 0.00 in
10:09 66.0 °F 65.5 °F 29.91 in Calm   1.0 mph 98 % 0.00 in
10:14 66.4 °F 65.8 °F 29.90 in Calm   1.0 mph 98 % 0.00 in
10:19 66.4 °F 65.8 °F 29.91 in Calm   1.0 mph 98 % 0.00 in
10:24 66.6 °F 66.0 °F 29.91 in Calm   1.0 mph 98 % 0.00 in
10:29 66.6 °F 66.0 °F 29.90 in ENE 1.0 mph 1.0 mph 98 % 0.00 in
10:34 66.7 °F 66.2 °F 29.90 in Calm   1.0 mph 98 % 0.00 in
10:39 66.9 °F 66.4 °F 29.90 in ESE 2.0 mph 2.0 mph 98 % 0.00 in
10:44 66.9 °F 66.0 °F 29.90 in SE 1.0 mph 3.0 mph 97 % 0.00 in
10:49 67.3 °F 66.4 °F 29.90 in Calm   3.0 mph 97 % 0.00 in
10:54 67.3 °F 66.4 °F 29.90 in Calm   3.0 mph 97 % 0.00 in
10:59 67.3 °F 66.0 °F 29.90 in SSE 2.0 mph 3.0 mph 96 % 0.00 in
11:04 67.5 °F 66.2 °F 29.90 in ESE 2.0 mph 3.0 mph 96 % 0.00 in
11:09 67.5 °F 66.2 °F 29.90 in SSE 2.0 mph 3.0 mph 96 % 0.00 in
11:14 67.8 °F 66.6 °F 29.90 in South 3.0 mph 3.0 mph 96 % 0.00 in
11:19 67.8 °F 66.4 °F 29.90 in Calm   4.0 mph 95 % 0.00 in
11:24 68.4 °F 66.9 °F 29.90 in Calm   4.0 mph 95 % 0.00 in
11:29 68.5 °F 66.7 °F 29.89 in Calm   4.0 mph 94 % 0.00 in
11:34 68.7 °F 66.9 °F 29.89 in NNW 1.0 mph 3.0 mph 94 % 0.00 in
11:39 69.1 °F 66.9 °F 29.89 in East 1.0 mph 3.0 mph 93 % 0.00 in
11:44 69.3 °F 67.1 °F 29.88 in SE 2.0 mph 3.0 mph 93 % 0.00 in
11:49 69.6 °F 67.3 °F 29.88 in SE 3.0 mph 3.0 mph 92 % 0.00 in
11:54 69.8 °F 67.1 °F 29.88 in SE 7.0 mph 7.0 mph 91 % 0.00 in
11:59 70.0 °F 66.9 °F 29.88 in SE 3.0 mph 8.0 mph 90 % 0.00 in
12:04 70.0 °F 66.9 °F 29.87 in South 1.0 mph 8.0 mph 90 % 0.00 in
12:10 70.0 °F 66.6 °F 29.87 in ESE 2.0 mph 8.0 mph 89 % 0.00 in
12:15 70.3 °F 67.3 °F 29.86 in Calm   6.0 mph 90 % 0.00 in
12:20 70.7 °F 67.3 °F 29.86 in South 3.0 mph 6.0 mph 89 % 0.00 in
12:25 70.9 °F 67.1 °F 29.86 in ESE 2.0 mph 6.0 mph 88 % 0.00 in
12:30 71.1 °F 67.3 °F 29.86 in Calm   4.0 mph 88 % 0.00 in
12:35 71.4 °F 67.3 °F 29.85 in North 1.0 mph 4.0 mph 87 % 0.00 in
12:40 72.0 °F 67.5 °F 29.85 in Calm   2.0 mph 86 % 0.00 in
12:45 72.1 °F 67.5 °F 29.85 in Calm   2.0 mph 85 % 0.00 in
12:50 72.9 °F 68.4 °F 29.84 in Calm   2.0 mph 86 % 0.00 in
12:55 73.6 °F 68.4 °F 29.84 in ENE 3.0 mph 3.0 mph 84 % 0.00 in
13:00 73.4 °F 68.0 °F 29.84 in ESE 2.0 mph 4.0 mph 83 % 0.00 in
13:05 73.2 °F 67.5 °F 29.83 in NNW 1.0 mph 4.0 mph 82 % 0.00 in
13:10 73.2 °F 67.5 °F 29.83 in Calm   4.0 mph 82 % 0.00 in
13:15 73.4 °F 67.6 °F 29.83 in South 1.0 mph 4.0 mph 82 % 0.00 in
13:20 73.8 °F 68.0 °F 29.83 in SW 1.0 mph 4.0 mph 82 % 0.00 in
13:25 74.5 °F 68.9 °F 29.82 in Calm   4.0 mph 83 % 0.00 in
13:30 74.5 °F 67.8 °F 29.82 in SE 2.0 mph 5.0 mph 80 % 0.00 in
13:35 73.9 °F 67.8 °F 29.81 in ENE 2.0 mph 5.0 mph 81 % 0.00 in
13:40 73.9 °F 68.4 °F 29.81 in East 2.0 mph 5.0 mph 83 % 0.00 in
13:45 74.1 °F 68.2 °F 29.81 in East 3.0 mph 5.0 mph 82 % 0.00 in
13:50 74.1 °F 68.0 °F 29.81 in NNE 1.0 mph 5.0 mph 81 % 0.00 in
13:55 73.9 °F 67.8 °F 29.81 in ESE 6.0 mph 6.0 mph 81 % 0.00 in
14:00 73.8 °F 68.0 °F 29.81 in Calm   7.0 mph 82 % 0.00 in
14:05 73.9 °F 68.2 °F 29.80 in ESE 2.0 mph 7.0 mph 82 % 0.00 in
14:10 74.3 °F 68.4 °F 29.80 in East 4.0 mph 7.0 mph 82 % 0.00 in
14:15 74.3 °F 68.0 °F 29.81 in Calm   5.0 mph 81 % 0.00 in
14:20 74.1 °F 67.6 °F 29.81 in SSE 3.0 mph 5.0 mph 80 % 0.00 in
14:25 73.9 °F 67.8 °F 29.80 in Calm   5.0 mph 81 % 0.00 in
14:30 73.9 °F 67.8 °F 29.80 in SE 2.0 mph 4.0 mph 81 % 0.00 in
14:35 73.9 °F 67.8 °F 29.80 in ESE 5.0 mph 5.0 mph 81 % 0.00 in
14:40 73.8 °F 67.6 °F 29.80 in SE 2.0 mph 5.0 mph 81 % 0.00 in
14:45 73.8 °F 68.0 °F 29.80 in SE 1.0 mph 5.0 mph 82 % 0.00 in
14:50 74.1 °F 68.0 °F 29.80 in SSE 2.0 mph 5.0 mph 81 % 0.00 in
14:55 74.1 °F 67.6 °F 29.80 in NW 1.0 mph 4.0 mph 80 % 0.00 in
15:00 74.3 °F 67.6 °F 29.80 in ESE 1.0 mph 4.0 mph 80 % 0.00 in
15:05 74.5 °F 67.5 °F 29.80 in ESE 2.0 mph 3.0 mph 79 % 0.00 in
15:10 74.5 °F 67.5 °F 29.80 in ESE 3.0 mph 4.0 mph 79 % 0.00 in
15:15 74.5 °F 67.5 °F 29.80 in Calm   4.0 mph 79 % 0.00 in
15:20 74.7 °F 67.3 °F 29.80 in Calm   4.0 mph 78 % 0.00 in
15:25 74.7 °F 67.3 °F 29.80 in Calm   4.0 mph 78 % 0.00 in
15:31 75.0 °F 67.6 °F 29.79 in Calm   3.0 mph 78 % 0.00 in
15:36 75.0 °F 67.3 °F 29.80 in ESE 2.0 mph 2.0 mph 77 % 0.00 in
15:41 74.8 °F 67.1 °F 29.80 in ESE 1.0 mph 2.0 mph 77 % 0.00 in
15:46 74.8 °F 67.5 °F 29.80 in Calm   2.0 mph 78 % 0.00 in
15:51 75.0 °F 67.3 °F 29.81 in SE 2.0 mph 2.0 mph 77 % 0.00 in
15:56 75.0 °F 66.9 °F 29.81 in Calm   3.0 mph 76 % 0.00 in
16:01 74.8 °F 66.7 °F 29.81 in South 2.0 mph 3.0 mph 76 % 0.00 in
16:06 74.7 °F 66.9 °F 29.81 in South 2.0 mph 3.0 mph 77 % 0.00 in
16:11 74.5 °F 67.1 °F 29.82 in SSW 1.0 mph 3.0 mph 78 % 0.00 in
16:16 74.1 °F 66.7 °F 29.82 in South 1.0 mph 4.0 mph 78 % 0.00 in
16:21 73.9 °F 67.1 °F 29.82 in South 2.0 mph 4.0 mph 79 % 0.00 in
16:26 73.9 °F 67.5 °F 29.82 in ESE 4.0 mph 4.0 mph 80 % 0.00 in
16:31 73.6 °F 67.1 °F 29.82 in SE 4.0 mph 4.0 mph 80 % 0.00 in
16:36 73.6 °F 67.1 °F 29.82 in SE 1.0 mph 4.0 mph 80 % 0.00 in
16:41 73.2 °F 66.7 °F 29.82 in SSE 3.0 mph 4.0 mph 80 % 0.00 in
16:46 73.2 °F 67.1 °F 29.82 in SSW 1.0 mph 4.0 mph 81 % 0.00 in
16:51 73.0 °F 66.9 °F 29.82 in Calm   4.0 mph 81 % 0.00 in
16:56 72.9 °F 67.1 °F 29.82 in SE 2.0 mph 4.0 mph 82 % 0.00 in
17:01 72.7 °F 66.9 °F 29.82 in Calm   2.0 mph 82 % 0.00 in
17:06 72.7 °F 67.3 °F 29.83 in Calm   2.0 mph 83 % 0.00 in
17:11 72.3 °F 66.9 °F 29.82 in Calm   2.0 mph 83 % 0.00 in
17:16 72.3 °F 66.9 °F 29.82 in Calm   1.0 mph 83 % 0.00 in
17:21 72.1 °F 67.1 °F 29.83 in Calm   1.0 mph 84 % 0.00 in
17:26 72.0 °F 66.9 °F 29.83 in SE 1.0 mph 1.0 mph 84 % 0.00 in
17:31 71.8 °F 67.1 °F 29.83 in Calm   1.0 mph 85 % 0.00 in
17:36 71.6 °F 66.9 °F 29.83 in Calm   1.0 mph 85 % 0.00 in
17:41 71.4 °F 67.1 °F 29.83 in Calm   1.0 mph 86 % 0.00 in
17:46 71.1 °F 66.7 °F 29.83 in Calm   1.0 mph 86 % 0.00 in
17:51 70.9 °F 66.7 °F 29.83 in Calm   1.0 mph 87 % 0.00 in
17:56 70.5 °F 66.4 °F 29.83 in Calm   1.0 mph 87 % 0.00 in
18:01 70.2 °F 66.4 °F 29.82 in Calm   1.0 mph 88 % 0.00 in
18:06 70.2 °F 66.7 °F 29.82 in Calm   1.0 mph 89 % 0.00 in
18:11 70.0 °F 66.6 °F 29.82 in Calm   1.0 mph 89 % 0.00 in
18:16 69.6 °F 66.6 °F 29.82 in Calm   1.0 mph 90 % 0.00 in
18:21 69.6 °F 66.6 °F 29.82 in Calm   1.0 mph 90 % 0.00 in
18:26 69.4 °F 66.7 °F 29.83 in Calm   1.0 mph 91 % 0.00 in
18:31 69.4 °F 66.7 °F 29.83 in Calm   2.0 mph 91 % 0.00 in
18:36 69.4 °F 66.7 °F 29.83 in Calm   2.0 mph 91 % 0.00 in
18:41 69.3 °F 66.6 °F 29.83 in Calm   2.0 mph 91 % 0.00 in
18:46 69.3 °F 66.6 °F 29.83 in Calm   1.0 mph 91 % 0.00 in
18:51 69.3 °F 66.9 °F 29.83 in SE 1.0 mph 2.0 mph 92 % 0.00 in
18:56 69.1 °F 66.7 °F 29.83 in Calm   2.0 mph 92 % 0.00 in
19:01 68.9 °F 66.6 °F 29.83 in ESE 1.0 mph 4.0 mph 92 % 0.00 in
19:06 69.1 °F 66.7 °F 29.83 in Calm   4.0 mph 92 % 0.00 in
19:11 69.1 °F 66.7 °F 29.83 in Calm   4.0 mph 92 % 0.00 in
19:16 68.9 °F 66.7 °F 29.83 in ESE 1.0 mph 4.0 mph 93 % 0.00 in
19:21 68.7 °F 66.6 °F 29.83 in SSE 1.0 mph 4.0 mph 93 % 0.00 in
19:26 68.7 °F 66.6 °F 29.83 in Calm   4.0 mph 93 % 0.00 in
19:31 68.5 °F 66.4 °F 29.83 in Calm   4.0 mph 93 % 0.00 in
19:36 68.5 °F 66.4 °F 29.83 in SE 1.0 mph 2.0 mph 93 % 0.00 in
19:41 68.4 °F 66.2 °F 29.83 in ESE 1.0 mph 3.0 mph 93 % 0.00 in
19:46 68.2 °F 66.4 °F 29.83 in ESE 1.0 mph 3.0 mph 94 % 0.00 in
19:51 68.2 °F 66.0 °F 29.83 in Calm   3.0 mph 93 % 0.00 in
19:56 68.0 °F 66.2 °F 29.83 in Calm   3.0 mph 94 % 0.00 in
20:01 67.8 °F 66.0 °F 29.83 in Calm   3.0 mph 94 % 0.00 in
20:06 67.6 °F 65.8 °F 29.83 in SE 1.0 mph 3.0 mph 94 % 0.00 in
20:11 67.6 °F 65.8 °F 29.83 in SSE 1.0 mph 3.0 mph 94 % 0.00 in
20:16 67.5 °F 65.7 °F 29.83 in SE 1.0 mph 3.0 mph 94 % 0.00 in
20:21 67.5 °F 65.7 °F 29.83 in ESE 1.0 mph 4.0 mph 94 % 0.00 in
20:26 67.3 °F 65.5 °F 29.83 in Calm   4.0 mph 94 % 0.00 in
20:31 67.3 °F 65.1 °F 29.83 in Calm   4.0 mph 93 % 0.00 in
20:36 67.1 °F 65.3 °F 29.83 in Calm   2.0 mph 94 % 0.00 in
20:41 66.9 °F 65.1 °F 29.83 in Calm   2.0 mph 94 % 0.00 in
20:46 66.6 °F 64.8 °F 29.83 in Calm   1.0 mph 94 % 0.00 in
20:51 66.6 °F 64.8 °F 29.83 in Calm   1.0 mph 94 % 0.00 in
20:56 66.4 °F 64.6 °F 29.83 in Calm   1.0 mph 94 % 0.00 in
21:01 66.2 °F 64.4 °F 29.83 in Calm   1.0 mph 94 % 0.00 in
21:06 66.0 °F 64.2 °F 29.83 in Calm   1.0 mph 94 % 0.00 in
21:11 65.8 °F 64.0 °F 29.83 in Calm   1.0 mph 94 % 0.00 in
21:16 65.8 °F 64.4 °F 29.83 in Calm   1.0 mph 95 % 0.00 in
21:21 65.7 °F 64.2 °F 29.83 in Calm   1.0 mph 95 % 0.00 in
21:26 65.8 °F 64.4 °F 29.83 in Calm   1.0 mph 95 % 0.00 in
21:31 65.7 °F 64.2 °F 29.83 in Calm   1.0 mph 95 % 0.00 in
21:36 65.5 °F 64.0 °F 29.83 in Calm   1.0 mph 95 % 0.00 in
21:41 65.7 °F 64.4 °F 29.83 in Calm   1.0 mph 96 % 0.00 in
21:47 65.7 °F 64.4 °F 29.83 in Calm   1.0 mph 96 % 0.00 in
21:52 65.5 °F 64.2 °F 29.83 in Calm   1.0 mph 96 % 0.00 in
21:57 65.5 °F 64.2 °F 29.83 in Calm   1.0 mph 96 % 0.00 in
22:02 65.3 °F 64.0 °F 29.83 in Calm   1.0 mph 96 % 0.00 in
22:07 65.3 °F 64.0 °F 29.83 in Calm     96 % 0.00 in
22:12 65.5 °F 64.6 °F 29.83 in Calm   2.0 mph 97 % 0.00 in
22:17 65.7 °F 64.8 °F 29.83 in Calm   2.0 mph 97 % 0.00 in
22:22 65.8 °F 64.9 °F 29.83 in Calm   2.0 mph 97 % 0.00 in
22:27 65.8 °F 64.9 °F 29.84 in Calm   2.0 mph 97 % 0.00 in
22:32 66.0 °F 65.1 °F 29.84 in ESE 2.0 mph 2.0 mph 97 % 0.00 in
22:37 66.0 °F 65.1 °F 29.83 in East 1.0 mph 2.0 mph 97 % 0.00 in
22:42 66.0 °F 65.1 °F 29.84 in Calm   2.0 mph 97 % 0.00 in
22:47 66.0 °F 65.1 °F 29.84 in SE 2.0 mph 2.0 mph 97 % 0.00 in
22:52 66.2 °F 65.3 °F 29.84 in Calm   2.0 mph 97 % 0.00 in
22:57 66.2 °F 65.3 °F 29.84 in Calm   2.0 mph 97 % 0.00 in
23:02 66.2 °F 65.3 °F 29.84 in Calm   2.0 mph 97 % 0.00 in
23:07 66.2 °F 65.3 °F 29.84 in ESE 1.0 mph 2.0 mph 97 % 0.00 in
23:12 66.2 °F 65.3 °F 29.84 in Calm   2.0 mph 97 % 0.00 in
23:17 66.2 °F 65.3 °F 29.84 in ESE 1.0 mph 2.0 mph 97 % 0.00 in
23:22 66.2 °F 65.3 °F 29.84 in Calm   2.0 mph 97 % 0.00 in
23:27 66.2 °F 65.3 °F 29.84 in Calm   2.0 mph 97 % 0.00 in
23:32 66.0 °F 65.1 °F 29.84 in Calm   2.0 mph 97 % 0.00 in
23:37 66.2 °F 65.3 °F 29.84 in Calm   2.0 mph 97 % 0.00 in
23:42 66.2 °F 65.3 °F 29.84 in Calm   1.0 mph 97 % 0.00 in
23:47 66.2 °F 65.3 °F 29.84 in Calm   1.0 mph 97 % 0.00 in
23:52 66.2 °F 65.3 °F 29.84 in Calm   1.0 mph 97 % 0.00 in
23:57 66.4 °F 65.5 °F 29.84 in Calm   1.0 mph 97 % 0.00 in
Spring, Texas: Villages of Bridgestone
Compliments of Weather Underground - 3.25 mb

Script developed by  Jim McMurry - jmcmurry@mwt.net Adapted for the template by  Wim van der Kuil - Leuven-Template.eu

You find our weather info also at:

UK Metoffice

WeatherCloud

Weather Underground

Mid-South Weather Network

AWEKAS

Citizen Weather Observer Program (CWOP)

HAMweather, WeatherForYou, PWS Weather

Equipment we use:

Weather-station
Davis Vantage Vue

Weather-program
Meteohub

Weather-server
Debian 7.9 x86 (Guest)

Provider
DreamHost

Davis Vantage Vue

Meteohub

Debian 7.9 x86 (Guest)

DreamHost